Airfield :
LOGIN :

Register | Disclaimer

   EN    FR    IT 

 










Legend :    VFR   Marginal VFR   IFR   Intensive IFR   Very Intensive IFR
Visi :
Ceiling :
>= 8 km
>= 3000ft
5 to 8 km
1000 to 3000 ft
1500m to 5 km
500 to 1000 ft
800 to 1500m
200 to 500 ft
< 800m
< 200 ft
Symbols :   Thunderstorms  Fog  Heavy snow  Heavy precipitations  Wind > 20 kt
SIGMETs :     Misc.  Thunderstorms  Icing  Turbulence  Mountain Waves  Volcanic Ashes






- Airport Elevation : 82 ft
- IATA code : AAR


EKAH - Aarhus Tirstrup

CURRENT METAR :
  • 021850Z AUTO 26017KT 230V300 9999NDV FEW038/// 05/M02 Q0996

EXPIRED METARs :
  • 021820Z AUTO 27020G32KT 9999NDV BKN036/// 05/M02 Q0996
  • 021750Z AUTO 27019G29KT 240V300 9999NDV BKN035/// BKN084/// 06/M00 Q0996
  • 021720Z AUTO 27022G37KT 9999NDV FEW031/// BKN075/// 06/M00 Q0996
  • 021650Z AUTO 27023G37KT 240V300 9999NDV FEW026/// BKN069/// 06/01 Q0995
  • 021620Z AUTO 26018G29KT 230V290 9999NDV BKN021/// 07/03 Q0995

Expired Forecast.



MET'MAP, your aeronautical weather chart ! - Copyright ORBIFLY December 2007 - Disclaimer

ORBIFLY MET'MAP TEAM :

Programming & Development : Alexandra Zaïnal
Concept & original design : Baudouin d'Aumeries
Assistance for programming : Marc-Olivier Méhu
Technical & hardware support : Manuel Goepfert

Contact : metmap@orbifly.com




SOURCES & CREDITS :

   NOAA